Time;durP1;ratioP1;P1;durP2;ratioP2;P2;SDS_P1;SDS_P2;PMS_P1;PMS_P2;Temp;Humidity;BMP_temperature;BMP_pressure;BME280_temperature;BME280_humidity;BME280_pressure;Samples;Min_cycle;Max_cycle;Signal;HPM_P1;HPM_P2
2022/06/30 00:03:22;;;;;;;3.20;2.15;;;;;;;17.97;67.40;95697.72;10364008;28;96734;-72
2022/06/30 00:08:26;;;;;;;3.88;2.35;;;;;;;17.92;67.89;95690.41;10369006;28;98674;-71
2022/06/30 00:13:29;;;;;;;3.70;2.30;;;;;;;18.02;67.25;95690.78;10371358;28;97116;-71
2022/06/30 00:18:32;;;;;;;3.42;2.45;;;;;;;18.08;67.69;95689.13;10372185;28;100475;-71
2022/06/30 00:23:36;;;;;;;3.80;2.25;;;;;;;18.04;67.14;95687.94;10371931;28;100443;-71
2022/06/30 00:28:39;;;;;;;2.35;1.90;;;;;;;18.04;66.56;95685.28;10369295;28;96832;-71
2022/06/30 00:33:42;;;;;;;3.10;2.40;;;;;;;18.04;66.95;95678.16;10370758;28;96900;-71
2022/06/30 00:38:46;;;;;;;6.28;2.45;;;;;;;17.96;67.44;95667.00;10371884;28;97202;-71
2022/06/30 00:43:49;;;;;;;5.38;2.92;;;;;;;17.78;67.86;95663.16;10378724;28;97107;-72
2022/06/30 00:48:52;;;;;;;3.88;2.40;;;;;;;17.69;68.20;95662.56;10375574;28;99062;-71
2022/06/30 00:54:04;;;;;;;4.30;2.28;;;;;;;17.63;68.80;95667.88;10374064;28;96906;-71
2022/06/30 00:59:09;;;;;;;3.22;2.65;;;;;;;17.41;69.59;95673.38;10377871;28;97144;-71
2022/06/30 01:04:13;;;;;;;3.17;2.63;;;;;;;17.25;70.23;95668.50;10384825;28;100395;-71
2022/06/30 01:15:46;;;;;;;4.88;2.78;;;;;;;17.01;71.07;95652.28;10370587;28;96760;-71
2022/06/30 01:20:49;;;;;;;5.10;2.70;;;;;;;16.98;71.50;95664.03;10376750;28;96915;-71
2022/06/30 01:25:53;;;;;;;3.60;2.75;;;;;;;16.93;71.10;95650.63;10379151;28;96894;-71
2022/06/30 01:30:56;;;;;;;3.05;2.75;;;;;;;16.90;71.54;95640.50;10374832;28;100224;-71
2022/06/30 01:35:59;;;;;;;4.25;3.30;;;;;;;16.81;71.75;95641.69;10373658;28;96954;-71
2022/06/30 01:41:03;;;;;;;5.07;2.67;;;;;;;16.74;71.93;95646.13;10377173;28;96874;-71
2022/06/30 01:46:06;;;;;;;5.32;2.72;;;;;;;16.56;72.57;95644.88;10376083;28;98568;-71
2022/06/30 01:51:09;;;;;;;4.60;2.78;;;;;;;16.39;73.19;95644.41;10371820;28;97051;-71
2022/06/30 01:56:13;;;;;;;3.42;3.00;;;;;;;16.37;73.73;95645.66;10373547;28;96933;-71
2022/06/30 02:01:16;;;;;;;3.87;2.57;;;;;;;16.36;73.61;95638.72;10376107;28;98856;-71
2022/06/30 02:06:18;;;;;;;3.40;2.80;;;;;;;16.27;73.66;95639.94;10375035;28;97026;-71
2022/06/30 02:11:23;;;;;;;4.60;3.00;;;;;;;16.18;74.21;95631.41;10374642;28;96978;-71
2022/06/30 02:16:25;;;;;;;6.10;2.70;;;;;;;16.03;74.40;95637.63;10373926;28;97890;-71
2022/06/30 02:21:28;;;;;;;4.63;2.78;;;;;;;15.91;74.48;95631.28;10373419;28;96814;-71
2022/06/30 02:26:32;;;;;;;3.53;2.65;;;;;;;15.88;74.92;95627.22;10371089;28;97119;-71
2022/06/30 02:31:35;;;;;;;4.63;3.33;;;;;;;15.89;74.49;95635.94;10374437;28;97938;-71
2022/06/30 02:36:38;;;;;;;3.92;2.85;;;;;;;15.89;74.79;95628.03;10372292;28;97574;-71
2022/06/30 02:41:42;;;;;;;3.17;2.58;;;;;;;15.82;75.40;95633.25;10372021;28;96764;-71
2022/06/30 02:46:47;;;;;;;6.82;2.80;;;;;;;15.69;75.55;95628.75;10375035;28;97175;-71
2022/06/30 02:51:51;;;;;;;4.43;3.20;;;;;;;15.69;75.57;95638.47;10376447;28;97026;-71
2022/06/30 02:56:55;;;;;;;5.53;3.38;;;;;;;15.71;75.79;95648.81;10374727;28;96907;-71
2022/06/30 03:01:58;;;;;;;6.10;3.13;;;;;;;15.70;75.23;95650.63;10371269;28;96926;-71
2022/06/30 03:07:00;;;;;;;4.93;3.65;;;;;;;15.68;75.50;95639.47;10373654;28;96910;-71
2022/06/30 03:12:06;;;;;;;3.78;3.10;;;;;;;15.61;76.00;95636.00;10371786;28;97847;-71
2022/06/30 03:17:09;;;;;;;4.97;2.88;;;;;;;15.56;76.38;95638.34;10369895;28;100518;-71
2022/06/30 03:22:12;;;;;;;6.05;3.13;;;;;;;15.42;77.01;95640.91;10374345;28;96885;-71
2022/06/30 03:27:16;;;;;;;6.18;3.15;;;;;;;15.40;76.88;95645.53;10373430;28;96935;-71
2022/06/30 03:32:19;;;;;;;3.23;2.93;;;;;;;15.36;76.59;95639.06;10373694;28;97236;-71
2022/06/30 03:37:22;;;;;;;5.82;3.38;;;;;;;15.37;77.40;95634.59;10370294;28;98505;-71
2022/06/30 03:42:26;;;;;;;4.30;3.70;;;;;;;15.38;77.34;95641.50;10370067;28;96739;-71
2022/06/30 03:47:29;;;;;;;4.78;3.20;;;;;;;15.37;76.39;95645.13;10366053;28;96930;-71
2022/06/30 03:52:32;;;;;;;3.72;3.08;;;;;;;15.36;76.76;95654.84;10372544;28;96909;-71
2022/06/30 03:57:36;;;;;;;4.20;3.08;;;;;;;15.31;76.48;95662.50;10369149;28;98130;-71
2022/06/30 04:02:39;;;;;;;5.40;3.40;;;;;;;15.21;76.73;95664.66;10370563;28;96880;-71
2022/06/30 04:07:43;;;;;;;6.78;3.33;;;;;;;15.20;77.73;95668.25;10366737;28;97434;-71
2022/06/30 04:12:47;;;;;;;4.03;3.25;;;;;;;15.25;77.74;95663.25;10371855;28;97984;-71
2022/06/30 04:17:50;;;;;;;4.90;2.83;;;;;;;15.33;77.62;95665.75;10376142;28;96971;-71
2022/06/30 04:22:53;;;;;;;4.75;3.42;;;;;;;15.48;77.21;95668.28;10379362;28;96849;-70
2022/06/30 04:28:00;;;;;;;6.28;3.00;;;;;;;15.57;76.56;95655.78;10379026;28;97740;-71
2022/06/30 04:33:03;;;;;;;3.13;2.72;;;;;;;15.70;75.94;95669.03;10379796;28;96888;-71
2022/06/30 04:38:07;;;;;;;4.53;2.80;;;;;;;15.73;75.32;95671.31;10377682;28;96700;-71
2022/06/30 04:43:11;;;;;;;3.53;2.80;;;;;;;15.81;75.75;95679.06;10375869;28;96950;-71
2022/06/30 04:48:14;;;;;;;4.20;3.10;;;;;;;15.90;74.99;95689.44;10373226;28;96916;-71
2022/06/30 04:53:17;;;;;;;7.32;3.03;;;;;;;15.96;75.40;95686.00;10378980;28;96980;-71
2022/06/30 04:58:21;;;;;;;3.70;3.13;;;;;;;15.99;75.57;95690.91;10374276;28;97010;-71
2022/06/30 05:03:24;;;;;;;4.70;3.03;;;;;;;16.10;75.71;95690.31;10373814;28;97426;-71
2022/06/30 05:08:27;;;;;;;6.25;3.67;;;;;;;16.25;75.41;95690.19;10374809;28;97921;-71
2022/06/30 05:13:32;;;;;;;4.88;3.60;;;;;;;16.44;74.92;95694.72;10376892;28;100464;-71
2022/06/30 05:18:34;;;;;;;3.65;3.35;;;;;;;16.62;73.92;95691.56;10374669;28;97902;-71
2022/06/30 05:23:37;;;;;;;5.90;3.30;;;;;;;16.85;74.00;95685.16;10374998;28;97021;-71
2022/06/30 05:28:42;;;;;;;6.13;3.20;;;;;;;17.07;73.72;95677.03;10376572;28;96916;-71
2022/06/30 05:33:46;;;;;;;4.57;3.28;;;;;;;17.26;73.37;95676.22;10373344;28;98020;-71
2022/06/30 05:38:49;;;;;;;3.63;2.80;;;;;;;17.40;72.23;95682.31;10373678;28;96752;-72
2022/06/30 05:43:53;;;;;;;5.95;3.20;;;;;;;17.48;71.88;95684.75;10383443;28;96915;-71
2022/06/30 05:48:56;;;;;;;4.93;3.25;;;;;;;17.52;71.22;95688.59;10373807;28;96953;-71
2022/06/30 05:53:59;;;;;;;6.38;3.28;;;;;;;17.60;70.78;95689.44;10372410;28;97316;-71
2022/06/30 05:59:03;;;;;;;5.15;3.20;;;;;;;17.70;70.05;95684.50;10377304;28;97027;-71
2022/06/30 06:04:06;;;;;;;5.47;2.78;;;;;;;17.78;69.99;95686.94;10374174;28;97112;-71
2022/06/30 06:09:09;;;;;;;5.85;2.60;;;;;;;17.99;69.30;95699.13;10370041;28;97045;-72
2022/06/30 06:14:13;;;;;;;4.65;3.17;;;;;;;18.20;69.49;95698.03;10373258;28;98410;-72
2022/06/30 06:19:16;;;;;;;3.95;3.00;;;;;;;18.30;69.12;95698.41;10374242;28;97365;-71
2022/06/30 06:24:24;;;;;;;5.32;3.10;;;;;;;18.46;68.58;95696.31;10371456;28;96756;-71
2022/06/30 06:29:29;;;;;;;4.53;3.10;;;;;;;18.69;68.59;95687.88;10372566;28;97140;-71
2022/06/30 06:34:32;;;;;;;7.95;3.20;;;;;;;18.81;68.11;95688.81;10374482;28;96927;-71
2022/06/30 06:39:35;;;;;;;6.22;3.72;;;;;;;18.89;67.37;95690.41;10371178;28;97156;-72
2022/06/30 06:44:39;;;;;;;7.00;3.80;;;;;;;19.10;67.49;95686.63;10372806;28;96964;-71
2022/06/30 06:49:42;;;;;;;4.68;2.78;;;;;;;19.35;66.59;95688.44;10376001;28;96833;-71
2022/06/30 06:54:45;;;;;;;7.50;3.00;;;;;;;19.57;66.91;95697.63;10373465;28;96866;-71
2022/06/30 06:59:49;;;;;;;6.07;3.20;;;;;;;19.87;65.82;95691.72;10370179;28;97245;-71
2022/06/30 07:04:52;;;;;;;5.20;3.50;;;;;;;20.33;65.22;95678.97;10374761;28;96835;-71
2022/06/30 07:09:55;;;;;;;5.40;2.75;;;;;;;20.67;64.21;95669.53;10370675;28;96947;-71
2022/06/30 07:14:59;;;;;;;3.40;2.53;;;;;;;20.96;62.96;95668.97;10372316;28;97030;-71
2022/06/30 07:20:02;;;;;;;4.47;2.47;;;;;;;21.06;62.56;95662.06;10372970;28;97231;-72
2022/06/30 07:25:06;;;;;;;3.85;2.83;;;;;;;21.12;61.88;95661.16;10371791;28;96854;-72
2022/06/30 07:30:12;;;;;;;4.18;2.40;;;;;;;21.16;61.33;95666.00;10370722;28;96779;-72
2022/06/30 07:35:15;;;;;;;4.30;2.67;;;;;;;21.22;61.10;95665.88;10373883;28;97009;-71
2022/06/30 07:40:18;;;;;;;3.63;3.20;;;;;;;21.24;60.53;95663.00;10371859;28;97109;-72
2022/06/30 07:45:22;;;;;;;4.85;3.70;;;;;;;21.41;60.55;95655.97;10374359;28;96805;-71
2022/06/30 07:50:25;;;;;;;5.35;4.47;;;;;;;21.49;59.94;95657.50;10370626;28;97389;-71
2022/06/30 07:55:28;;;;;;;6.32;5.45;;;;;;;21.68;59.78;95664.34;10377481;28;97195;-71
2022/06/30 08:00:32;;;;;;;5.10;2.97;;;;;;;21.77;58.85;95662.13;10374546;28;98598;-72
2022/06/30 08:05:35;;;;;;;3.85;3.17;;;;;;;21.75;59.25;95652.78;10373590;28;96959;-72
2022/06/30 08:10:38;;;;;;;4.32;2.85;;;;;;;21.83;59.38;95657.72;10369084;28;98038;-72
2022/06/30 08:15:42;;;;;;;5.07;3.40;;;;;;;21.99;59.53;95649.06;10373397;28;98625;-72
2022/06/30 08:20:44;;;;;;;;;;;;;;;22.17;59.33;95629.47;10373745;28;97042;-72
2022/06/30 08:25:47;;;;;;;3.78;3.35;;;;;;;22.32;59.36;95626.31;10375101;28;97168;-72
2022/06/30 08:30:52;;;;;;;6.45;3.17;;;;;;;22.49;59.07;95618.41;10371512;28;98547;-72
2022/06/30 08:35:54;;;;;;;;;;;;;;;22.61;58.72;95618.34;10371319;28;97120;-71
2022/06/30 08:46:26;;;;;;;5.65;2.90;;;;;;;22.87;57.78;95605.47;10373501;28;96988;-71
2022/06/30 08:51:30;;;;;;;4.53;3.03;;;;;;;22.97;56.98;95617.09;10369874;28;96901;-72
2022/06/30 08:56:34;;;;;;;;;;;;;;;23.06;57.28;95614.03;10370968;28;97353;-72
2022/06/30 09:01:39;;;;;;;3.40;2.80;;;;;;;23.16;56.22;95608.88;10370085;28;96933;-71
2022/06/30 09:06:44;;;;;;;4.80;2.83;;;;;;;23.22;56.01;95607.91;10370160;28;100267;-72
2022/06/30 09:11:53;;;;;;;5.43;2.97;;;;;;;23.31;54.98;95611.81;10367293;28;96738;-72
2022/06/30 09:16:58;;;;;;;5.10;3.13;;;;;;;23.50;54.22;95604.34;10374743;28;96969;-72
2022/06/30 09:22:06;;;;;;;5.40;2.80;;;;;;;23.56;52.45;95602.56;10369600;28;97310;-72
2022/06/30 09:27:19;;;;;;;3.17;2.40;;;;;;;23.69;51.39;95596.88;10370181;28;97292;-72
2022/06/30 09:32:23;;;;;;;3.03;2.45;;;;;;;23.88;51.15;95599.25;10371969;28;96766;-72
2022/06/30 09:37:26;;;;;;;4.43;2.60;;;;;;;24.11;50.74;95598.25;10371955;28;96870;-72
2022/06/30 09:42:41;;;;;;;6.88;2.90;;;;;;;24.37;50.09;95599.34;10367713;28;97483;-71
2022/06/30 09:47:58;;;;;;;3.55;2.40;;;;;;;24.67;49.49;95590.03;10370634;28;96969;-72
2022/06/30 09:53:13;;;;;;;3.92;2.22;;;;;;;24.82;49.06;95576.84;10370736;28;96894;-72
2022/06/30 09:58:34;;;;;;;7.03;2.60;;;;;;;24.78;48.20;95590.91;10370974;28;96945;-71
2022/06/30 10:03:45;;;;;;;3.88;2.58;;;;;;;24.69;47.62;95590.56;10368881;28;97892;-72
2022/06/30 10:08:49;;;;;;;7.57;2.78;;;;;;;24.66;48.15;95583.06;10357284;28;96826;-72
2022/06/30 10:13:52;;;;;;;4.67;3.03;;;;;;;24.57;48.68;95584.56;10369585;28;97055;-71
2022/06/30 10:18:58;;;;;;;5.93;3.17;;;;;;;24.54;48.47;95577.06;10369197;28;97579;-71
2022/06/30 10:24:01;;;;;;;4.95;2.60;;;;;;;24.61;47.70;95580.34;10368921;28;97334;-72
2022/06/30 10:29:05;;;;;;;4.13;2.70;;;;;;;24.69;48.08;95569.19;10371458;28;96911;-72
2022/06/30 10:34:26;;;;;;;3.42;2.40;;;;;;;24.98;47.18;95575.09;10369229;28;96994;-72
2022/06/30 10:39:42;;;;;;;3.05;1.95;;;;;;;25.28;45.53;95567.56;10366177;28;97026;-72
2022/06/30 10:44:45;;;;;;;2.95;2.03;;;;;;;25.58;45.56;95567.78;10356070;28;100293;-72
2022/06/30 10:50:10;;;;;;;4.00;2.00;;;;;;;25.95;45.22;95564.19;10369450;28;97256;-72
2022/06/30 10:55:12;;;;;;;5.40;2.03;;;;;;;26.14;45.32;95555.72;10368524;28;98651;-72
2022/06/30 11:00:50;;;;;;;3.00;2.00;;;;;;;26.49;44.13;95549.66;10367848;28;98180;-71
2022/06/30 11:05:54;;;;;;;2.88;2.00;;;;;;;26.92;43.23;95552.13;10365903;28;96862;-72
2022/06/30 11:10:57;;;;;;;3.20;1.90;;;;;;;27.43;42.83;95552.06;10368757;28;96937;-72
2022/06/30 11:16:00;;;;;;;2.63;1.60;;;;;;;27.86;42.08;95554.41;10365580;28;97339;-72
2022/06/30 11:21:07;;;;;;;2.90;1.70;;;;;;;28.15;41.90;95551.88;10366603;28;96797;-72
2022/06/30 11:31:39;;;;;;;3.63;1.60;;;;;;;28.77;40.45;95538.06;10318870;28;97461;-71
2022/06/30 11:36:45;;;;;;;2.92;1.50;;;;;;;29.06;39.61;95540.81;10307179;28;97134;-72
2022/06/30 11:41:57;;;;;;;2.75;1.58;;;;;;;29.13;39.51;95538.59;10316684;28;97400;-72
2022/06/30 11:47:01;;;;;;;2.63;1.50;;;;;;;29.38;39.47;95538.63;10312850;28;97301;-72
2022/06/30 11:52:15;;;;;;;3.22;1.65;;;;;;;29.38;39.06;95539.44;10308283;28;96989;-72
2022/06/30 11:57:20;;;;;;;3.03;1.88;;;;;;;29.30;39.00;95535.47;10314967;28;97462;-73
2022/06/30 12:02:28;;;;;;;2.70;1.70;;;;;;;29.07;39.31;95541.59;10321323;28;97261;-72
2022/06/30 12:07:32;;;;;;;;;;;;;;;28.94;40.16;95535.81;10343979;28;97042;-71
2022/06/30 12:12:36;;;;;;;1.60;1.50;;;;;;;28.87;39.24;95524.53;10364493;28;96878;-72
2022/06/30 12:17:41;;;;;;;2.25;1.48;;;;;;;28.91;38.79;95514.84;10366684;28;96941;-72
2022/06/30 12:22:48;;;;;;;3.35;1.58;;;;;;;28.93;38.22;95517.25;10367228;28;96831;-70
2022/06/30 12:27:52;;;;;;;1.52;1.38;;;;;;;28.95;37.83;95523.16;10361864;28;97029;-70
2022/06/30 12:32:57;;;;;;;2.47;1.30;;;;;;;28.82;36.62;95513.03;10355283;28;98010;-70
2022/06/30 12:38:12;;;;;;;1.95;1.35;;;;;;;29.05;36.22;95503.44;10373040;28;97718;-69
2022/06/30 12:43:15;;;;;;;3.70;1.60;;;;;;;29.33;35.90;95504.50;10373460;28;97352;-69
2022/06/30 12:48:41;;;;;;;2.15;1.40;;;;;;;29.46;35.88;95503.03;10373387;28;97765;-69
2022/06/30 12:53:46;;;;;;;4.18;1.67;;;;;;;29.60;35.44;95501.28;10370138;28;97025;-69
2022/06/30 12:58:52;;;;;;;2.13;1.27;;;;;;;29.54;35.78;95486.28;10372686;28;96711;-69
2022/06/30 13:03:58;;;;;;;2.20;1.42;;;;;;;29.83;35.48;95485.41;10372235;28;97014;-69
2022/06/30 13:09:06;;;;;;;2.45;1.50;;;;;;;29.93;34.59;95479.91;10369225;28;96975;-69
2022/06/30 13:14:09;;;;;;;2.28;1.35;;;;;;;30.03;34.40;95482.44;10367551;28;96839;-69
2022/06/30 13:19:12;;;;;;;2.45;1.40;;;;;;;30.33;33.95;95472.34;10369830;28;97126;-69
2022/06/30 13:24:19;;;;;;;2.00;1.40;;;;;;;30.50;33.69;95481.81;10368207;28;96917;-69
2022/06/30 13:29:23;;;;;;;2.17;1.73;;;;;;;30.64;33.14;95474.59;10370127;28;100163;-69
2022/06/30 13:34:26;;;;;;;;;;;;;;;30.80;33.58;95480.56;10372466;28;96875;-70
2022/06/30 13:39:30;;;;;;;2.53;1.52;;;;;;;30.77;33.20;95471.16;10368354;28;96891;-70
2022/06/30 13:44:36;;;;;;;3.15;1.58;;;;;;;30.85;33.61;95470.47;10370394;28;96838;-69
2022/06/30 13:49:40;;;;;;;2.78;1.67;;;;;;;30.98;33.28;95460.81;10366701;28;98594;-69
2022/06/30 13:54:45;;;;;;;2.60;1.50;;;;;;;31.02;33.44;95461.81;10368867;28;97143;-70
2022/06/30 13:59:47;;;;;;;3.03;1.23;;;;;;;31.25;32.88;95461.16;10371356;28;96716;-70
2022/06/30 14:04:50;;;;;;;5.45;1.55;;;;;;;31.26;33.20;95454.66;10367794;28;96851;-69
2022/06/30 14:09:55;;;;;;;5.72;1.52;;;;;;;31.84;31.96;95454.06;10364827;28;96963;-69
2022/06/30 14:14:58;;;;;;;6.95;1.65;;;;;;;32.12;32.68;95454.81;10368947;28;97683;-69
2022/06/30 14:20:01;;;;;;;5.05;1.73;;;;;;;32.39;31.52;95452.31;10370931;28;97187;-69
2022/06/30 14:25:06;;;;;;;5.55;1.75;;;;;;;34.66;29.18;95447.72;10366756;28;96810;-70
2022/06/30 14:30:11;;;;;;;5.63;1.50;;;;;;;35.46;27.81;95441.78;10367978;28;96861;-70
2022/06/30 14:35:14;;;;;;;3.92;1.50;;;;;;;34.28;28.88;95449.22;10364203;28;97065;-70
2022/06/30 14:40:19;;;;;;;2.30;1.58;;;;;;;32.87;30.33;95428.19;10369290;28;96930;-69
2022/06/30 14:45:23;;;;;;;1.98;1.52;;;;;;;31.97;31.79;95431.66;10369791;28;96932;-69
2022/06/30 14:50:26;;;;;;;2.85;1.40;;;;;;;31.03;32.15;95433.78;10367728;28;96892;-69
2022/06/30 14:55:30;;;;;;;3.28;1.77;;;;;;;30.03;32.89;95436.66;10360937;28;96777;-69
2022/06/30 15:00:35;;;;;;;4.40;1.70;;;;;;;29.75;32.89;95462.63;10366959;28;96882;-69
2022/06/30 15:05:38;;;;;;;4.68;1.58;;;;;;;29.24;33.75;95466.69;10360371;28;97316;-69
2022/06/30 15:10:42;;;;;;;4.22;1.58;;;;;;;29.06;33.88;95467.41;10369520;28;97080;-69
2022/06/30 15:15:45;;;;;;;4.45;1.77;;;;;;;29.26;33.28;95472.59;10367391;28;96776;-69
2022/06/30 15:24:05;;;;;;;5.20;1.83;;;;;;;28.87;34.17;95454.66;10363959;28;97115;-69
2022/06/30 15:26:12;;;;;;;2.60;1.60;;;;;;;28.85;34.86;95440.69;10364472;28;96863;-69
2022/06/30 15:31:15;;;;;;;3.70;1.73;;;;;;;28.81;35.21;95431.56;10364761;28;96993;-69
2022/06/30 15:36:18;;;;;;;3.38;1.67;;;;;;;28.17;36.94;95450.34;10365601;28;96950;-69
2022/06/30 15:41:23;;;;;;;6.40;2.00;;;;;;;27.62;38.04;95473.72;10378870;28;97019;-69
2022/06/30 15:46:26;;;;;;;3.00;1.90;;;;;;;27.10;39.18;95473.84;10366870;28;96781;-70
2022/06/30 15:51:29;;;;;;;;;;;;;;;26.44;39.38;95449.75;10364400;28;97034;-69
2022/06/30 15:56:33;;;;;;;5.57;2.40;;;;;;;25.64;44.15;95484.91;10363717;28;97730;-69
2022/06/30 16:01:36;;;;;;;6.18;2.60;;;;;;;24.55;48.85;95498.59;10351062;28;97350;-70
2022/06/30 16:06:42;;;;;;;4.82;2.30;;;;;;;23.91;51.45;95486.72;10346828;28;97261;-72
2022/06/30 16:11:51;;;;;;;3.63;2.00;;;;;;;23.84;52.42;95513.59;10363161;28;96848;-74
2022/06/30 16:17:00;;;;;;;3.60;1.90;;;;;;;24.18;53.18;95518.81;10374792;28;97957;-73
2022/06/30 16:22:07;;;;;;;4.80;1.80;;;;;;;24.54;52.75;95512.97;10369991;28;96819;-73
2022/06/30 16:27:16;;;;;;;4.80;2.28;;;;;;;24.71;52.41;95486.94;10372127;28;98081;-74
2022/06/30 16:32:25;;;;;;;4.28;2.33;;;;;;;24.34;52.52;95453.03;10371359;28;98517;-73
2022/06/30 16:37:30;;;;;;;4.45;2.10;;;;;;;23.78;52.70;95460.47;10371393;28;97322;-74
2022/06/30 16:42:39;;;;;;;3.90;2.05;;;;;;;22.99;55.58;95449.88;10369490;28;98612;-74
2022/06/30 16:47:52;;;;;;;3.33;1.90;;;;;;;22.37;53.85;95456.09;10370570;28;97727;-74
2022/06/30 16:53:00;;;;;;;3.23;1.77;;;;;;;22.04;53.72;95507.41;10374650;28;98124;-73
2022/06/30 16:58:09;;;;;;;4.80;2.05;;;;;;;21.97;53.87;95559.91;10365135;28;97497;-72
2022/06/30 17:03:12;;;;;;;3.50;1.73;;;;;;;21.82;53.89;95595.78;10363619;28;97625;-72
2022/06/30 17:08:17;;;;;;;5.47;1.60;;;;;;;21.01;56.73;95595.53;10370735;28;96950;-73
2022/06/30 17:13:26;;;;;;;3.88;1.73;;;;;;;20.94;57.33;95669.19;10370630;28;97349;-74
2022/06/30 17:18:35;;;;;;;4.93;3.15;;;;;;;21.03;58.36;95629.84;10369188;28;97501;-74
2022/06/30 17:23:40;;;;;;;2.58;1.63;;;;;;;21.09;57.89;95666.91;10369226;28;96953;-74
2022/06/30 17:28:47;;;;;;;2.22;1.60;;;;;;;21.94;55.72;95667.56;10373677;28;96989;-74
2022/06/30 17:33:52;;;;;;;2.60;1.42;;;;;;;22.07;52.73;95653.19;10369495;28;96935;-72
2022/06/30 17:38:57;;;;;;;1.95;1.30;;;;;;;22.19;52.27;95632.69;10370847;28;97993;-73
2022/06/30 17:44:08;;;;;;;3.08;1.55;;;;;;;22.27;52.02;95670.63;10373893;28;97076;-74
2022/06/30 17:49:24;;;;;;;2.75;1.50;;;;;;;22.30;52.49;95675.47;10373582;28;96986;-74
2022/06/30 17:54:28;;;;;;;2.80;2.03;;;;;;;22.15;53.56;95707.91;10368923;28;96716;-73
2022/06/30 17:59:35;;;;;;;2.63;2.10;;;;;;;22.09;55.62;95751.38;10367229;28;98017;-74
2022/06/30 18:04:40;;;;;;;3.88;2.10;;;;;;;21.96;55.71;95771.03;10365902;28;96928;-72
2022/06/30 18:15:02;;;;;;;1.48;0.40;;;;;;;20.75;52.44;95783.41;10274143;28;101261;-72
2022/06/30 18:20:06;;;;;;;0.77;0.70;;;;;;;20.43;52.40;95806.59;10285529;28;96946;-72
2022/06/30 18:25:09;;;;;;;0.55;0.55;;;;;;;20.34;51.89;95821.97;10279665;28;97119;-72
2022/06/30 18:30:14;;;;;;;1.57;0.50;;;;;;;19.70;55.62;95825.78;10281696;28;98277;-72
2022/06/30 18:35:18;;;;;;;2.92;0.40;;;;;;;18.18;60.55;95869.28;10272548;28;97159;-72
2022/06/30 18:40:27;;;;;;;0.52;0.40;;;;;;;17.13;63.98;95890.81;10283748;28;100506;-72
2022/06/30 18:45:33;;;;;;;2.83;0.80;;;;;;;16.92;68.32;95928.69;10273356;28;96961;-71
2022/06/30 18:50:39;;;;;;;1.90;0.93;;;;;;;16.84;66.34;95941.22;10317436;28;97030;-72
2022/06/30 18:55:42;;;;;;;0.95;0.70;;;;;;;16.63;66.00;95962.16;10366835;28;97053;-72
2022/06/30 19:00:47;;;;;;;0.65;0.50;;;;;;;16.29;68.55;95972.66;10367144;28;98168;-73
2022/06/30 19:05:50;;;;;;;6.07;1.88;;;;;;;16.23;70.43;95961.84;10352696;28;96797;-72
2022/06/30 19:10:55;;;;;;;0.98;0.60;;;;;;;16.25;70.30;95999.38;10369782;28;97110;-72
2022/06/30 19:16:00;;;;;;;1.65;0.68;;;;;;;16.22;71.36;95970.78;10364285;28;101305;-72
2022/06/30 19:21:08;;;;;;;2.85;0.82;;;;;;;16.09;69.41;95954.84;10366699;27;96829;-72
2022/06/30 19:26:31;;;;;;;1.60;0.80;;;;;;;16.02;69.89;96012.75;10361219;28;98152;-72
2022/06/30 19:31:36;;;;;;;1.27;0.60;;;;;;;15.93;69.84;96036.75;10367556;28;97208;-73
2022/06/30 19:36:39;;;;;;;;;;;;;;;15.88;69.00;96032.88;10365848;28;96971;-72
2022/06/30 19:41:42;;;;;;;1.25;0.80;;;;;;;15.81;71.59;96058.31;10365643;28;96957;-72
2022/06/30 19:46:47;;;;;;;4.57;0.70;;;;;;;15.87;72.90;96039.13;10367959;28;96849;-72
2022/06/30 19:51:50;;;;;;;1.15;0.50;;;;;;;15.94;72.22;96030.50;10363391;28;98058;-72
2022/06/30 19:56:54;;;;;;;1.48;0.52;;;;;;;15.81;72.25;96060.16;10365385;28;101270;-72
2022/06/30 20:01:59;;;;;;;0.80;0.60;;;;;;;15.78;72.78;96074.47;10366753;28;97162;-72
2022/06/30 20:11:26;;;;;;;;;;;;;;;15.72;72.16;96095.47;10364030;28;97501;-72
2022/06/30 20:12:26;;;;;;;1.73;1.00;;;;;;;15.75;74.08;96116.97;10356624;28;96955;-72
2022/06/30 20:17:32;;;;;;;2.72;0.95;;;;;;;15.76;74.15;96121.25;10356636;28;97165;-71
2022/06/30 20:22:35;;;;;;;1.23;0.40;;;;;;;15.50;72.16;96135.66;10357130;28;98107;-72
2022/06/30 20:27:38;;;;;;;0.57;0.22;;;;;;;15.43;67.76;96152.38;10354474;28;97761;-71
2022/06/30 20:32:43;;;;;;;0.35;0.35;;;;;;;15.21;69.35;96143.53;10356429;28;98555;-70
2022/06/30 20:37:46;;;;;;;0.30;0.25;;;;;;;15.15;66.23;96141.59;10356496;28;97966;-70
2022/06/30 20:42:49;;;;;;;0.30;0.30;;;;;;;15.22;66.37;96148.63;10358674;28;98227;-70
2022/06/30 20:53:14;;;;;;;0.95;0.60;;;;;;;15.23;69.59;96154.69;10356533;28;97402;-70
2022/06/30 20:58:17;;;;;;;6.35;5.40;;;;;;;15.28;71.35;96160.25;10360142;28;98769;-70
2022/06/30 21:03:21;;;;;;;1.42;0.95;;;;;;;15.37;71.13;96177.59;10363716;28;101873;-68
2022/06/30 21:08:25;;;;;;;3.10;2.10;;;;;;;15.48;71.79;96169.25;10369038;28;97393;-71
2022/06/30 21:13:37;;;;;;;3.05;1.10;;;;;;;15.59;71.84;96175.94;10370481;28;96925;-70
2022/06/30 21:18:47;;;;;;;1.45;1.02;;;;;;;15.62;73.18;96180.84;10371687;28;97062;-71
2022/06/30 21:23:56;;;;;;;0.90;0.70;;;;;;;15.42;74.03;96183.13;10370427;28;97097;-71
2022/06/30 21:29:03;;;;;;;1.65;0.90;;;;;;;15.19;75.22;96188.44;10371106;28;98694;-71
2022/06/30 21:34:15;;;;;;;3.30;1.00;;;;;;;15.12;75.51;96151.50;10372180;28;96724;-70
2022/06/30 21:39:27;;;;;;;5.75;3.70;;;;;;;15.20;74.74;96120.84;10368259;28;97759;-72
2022/06/30 21:44:33;;;;;;;47.22;35.38;;;;;;;15.22;75.32;96076.78;10368331;28;98484;-71
2022/06/30 21:49:45;;;;;;;2.22;1.58;;;;;;;15.08;76.16;96058.16;10372737;28;100861;-72
2022/06/30 21:54:55;;;;;;;2.53;1.10;;;;;;;14.96;76.04;96041.19;10366470;28;97356;-71
2022/06/30 22:00:04;;;;;;;3.63;1.88;;;;;;;14.86;76.32;96028.28;10364504;28;97516;-71
2022/06/30 22:05:18;;;;;;;1.50;1.00;;;;;;;14.73;76.08;96039.44;10372370;28;98637;-72
2022/06/30 22:10:27;;;;;;;2.92;0.90;;;;;;;14.65;76.95;96031.59;10368320;28;96947;-72
2022/06/30 22:15:41;;;;;;;4.72;1.10;;;;;;;14.47;76.73;96039.81;10368304;28;96983;-72
2022/06/30 22:20:53;;;;;;;3.33;1.10;;;;;;;14.31;77.70;96056.50;10366736;28;97193;-72
2022/06/30 22:26:05;;;;;;;2.13;1.00;;;;;;;14.30;78.07;96068.00;10370859;28;98181;-72
2022/06/30 22:31:19;;;;;;;1.45;1.05;;;;;;;14.40;78.02;96085.34;10367945;28;98063;-72
2022/06/30 22:36:29;;;;;;;1.05;0.80;;;;;;;14.46;78.46;96095.19;10368247;28;96883;-72
2022/06/30 22:41:43;;;;;;;1.50;1.00;;;;;;;14.46;78.91;96106.50;10362158;28;97268;-72
2022/06/30 22:46:56;;;;;;;4.27;1.27;;;;;;;14.51;78.10;96103.34;10365642;28;97006;-72
2022/06/30 22:52:03;;;;;;;1.85;1.10;;;;;;;14.54;78.61;96134.53;10366160;28;97046;-73
2022/06/30 22:57:19;;;;;;;1.52;1.10;;;;;;;14.53;78.27;96143.44;10366599;28;98446;-72
2022/06/30 23:02:32;;;;;;;2.08;1.30;;;;;;;14.55;79.06;96160.66;10364698;28;96780;-72
2022/06/30 23:07:41;;;;;;;1.88;1.17;;;;;;;14.68;79.46;96186.38;10366837;28;97204;-73
2022/06/30 23:13:10;;;;;;;3.92;1.30;;;;;;;14.82;78.70;96197.94;10366752;28;97125;-72
2022/06/30 23:18:26;;;;;;;2.50;1.00;;;;;;;14.80;78.97;96210.47;10365722;28;97144;-72
2022/06/30 23:23:34;;;;;;;2.22;1.02;;;;;;;14.84;79.29;96206.47;10363712;28;96807;-73
2022/06/30 23:28:41;;;;;;;1.92;1.05;;;;;;;14.84;79.49;96203.03;10370832;28;97041;-73
2022/06/30 23:33:47;;;;;;;3.22;1.20;;;;;;;14.79;79.03;96190.41;10360576;28;96890;-73
2022/06/30 23:38:59;;;;;;;2.28;0.90;;;;;;;14.91;78.70;96209.22;10366559;28;96747;-73
2022/06/30 23:44:06;;;;;;;2.05;1.27;;;;;;;14.90;78.85;96192.59;10367266;28;97283;-73
2022/06/30 23:49:12;;;;;;;2.30;0.90;;;;;;;14.94;78.47;96199.19;10366182;28;96813;-73
2022/06/30 23:54:21;;;;;;;2.92;0.95;;;;;;;14.98;78.64;96201.47;10363772;28;96990;-73
2022/06/30 23:59:30;;;;;;;1.50;1.15;;;;;;;15.05;78.38;96211.09;10367421;28;100515;-73
